createdAt,value
2018-03-04T00:00:16.789Z,46.15
2018-03-04T00:01:22.394Z,56.45
2018-03-04T00:02:28.272Z,44.65
2018-03-04T00:03:34.190Z,46.95
2018-03-04T00:04:40.144Z,56.63
2018-03-04T00:05:46.312Z,49.05
2018-03-04T00:06:52.460Z,50.45
2018-03-04T00:08:04.714Z,45.20
2018-03-04T00:09:14.984Z,44.28
2018-03-04T00:10:21.136Z,54.42
2018-03-04T00:11:27.040Z,47.10
2018-03-04T00:12:33.189Z,49.78
2018-03-04T00:13:39.368Z,41.83
2018-03-04T00:14:45.504Z,49.97
2018-03-04T00:15:51.697Z,45.70
2018-03-04T00:16:57.985Z,50.83
2018-03-04T00:18:04.142Z,50.28
2018-03-04T00:19:10.275Z,48.90
2018-03-04T00:20:16.434Z,48.40
2018-03-04T00:21:22.356Z,46.72
2018-03-04T00:22:39.976Z,46.97
2018-03-04T00:23:46.126Z,54.35
2018-03-04T00:24:52.336Z,47.05
2018-03-04T00:25:58.455Z,50.00
2018-03-04T00:27:04.641Z,53.42
2018-03-04T00:28:10.824Z,51.95
2018-03-04T00:29:16.987Z,49.10
2018-03-04T00:30:23.184Z,49.53
2018-03-04T00:31:29.370Z,50.83
2018-03-04T00:32:35.552Z,50.50
2018-03-04T00:33:41.731Z,55.08
2018-03-04T00:34:47.861Z,56.00
2018-03-04T00:35:54.044Z,51.85
2018-03-04T00:37:00.198Z,46.60
2018-03-04T00:38:06.385Z,50.65
2018-03-04T00:39:12.552Z,57.35
2018-03-04T00:40:18.679Z,43.60
2018-03-04T00:41:24.932Z,41.88
2018-03-04T00:42:31.084Z,47.90
2018-03-04T00:43:37.299Z,46.88
2018-03-04T00:44:43.738Z,47.35
2018-03-04T00:45:49.932Z,48.30
2018-03-04T00:46:56.368Z,50.80
2018-03-04T00:48:02.529Z,49.35
2018-03-04T00:49:08.683Z,49.13
2018-03-04T00:50:14.642Z,49.67
2018-03-04T00:51:20.443Z,55.55
2018-03-04T00:52:26.633Z,54.72
2018-03-04T00:53:32.833Z,50.03
2018-03-04T00:54:42.135Z,58.55
2018-03-04T00:55:51.465Z,55.47
2018-03-04T00:56:57.669Z,54.70
2018-03-04T00:58:04.177Z,47.20
2018-03-04T00:59:10.347Z,48.75
2018-03-04T01:00:16.491Z,46.45
2018-03-04T01:01:22.661Z,48.15
2018-03-04T01:02:28.817Z,44.90
2018-03-04T01:03:34.976Z,49.63
2018-03-04T01:04:41.097Z,56.67
2018-03-04T01:05:47.284Z,48.40
2018-03-04T01:06:53.456Z,49.17
2018-03-04T01:07:59.638Z,50.50
2018-03-04T01:09:04.809Z,54.85
2018-03-04T01:10:10.531Z,50.35
2018-03-04T01:11:17.069Z,53.42
2018-03-04T01:12:22.911Z,46.78
2018-03-04T01:13:28.929Z,50.03
2018-03-04T01:14:35.232Z,47.75
2018-03-04T01:15:41.404Z,50.05
2018-03-04T01:16:47.618Z,53.85
2018-03-04T01:17:53.809Z,57.17
2018-03-04T01:18:59.976Z,55.20
2018-03-04T01:20:06.103Z,45.72
2018-03-04T01:21:12.258Z,49.35
2018-03-04T01:22:19.036Z,52.22
2018-03-04T01:23:25.054Z,49.92
2018-03-04T01:24:31.187Z,58.38
2018-03-04T01:25:37.402Z,51.88
2018-03-04T01:26:43.559Z,54.63
2018-03-04T01:27:49.773Z,51.22
2018-03-04T01:28:56.125Z,48.30
2018-03-04T01:30:02.278Z,49.90
2018-03-04T01:31:07.744Z,57.28
2018-03-04T01:32:13.876Z,49.17
2018-03-04T01:33:20.027Z,50.28
2018-03-04T01:34:26.249Z,49.22
2018-03-04T01:35:32.439Z,47.10
2018-03-04T01:36:38.610Z,49.00
2018-03-04T01:37:44.761Z,55.38
2018-03-04T01:38:51.032Z,52.75
2018-03-04T01:39:57.176Z,52.30
2018-03-04T01:41:03.364Z,48.03
2018-03-04T01:42:09.652Z,48.40
2018-03-04T01:43:15.600Z,52.17
2018-03-04T01:44:21.782Z,43.95
2018-03-04T01:45:27.972Z,45.63
2018-03-04T01:46:34.140Z,48.03
2018-03-04T01:47:40.311Z,39.92
2018-03-04T01:48:46.473Z,51.10
2018-03-04T01:49:52.705Z,43.00
2018-03-04T01:50:58.884Z,47.83
2018-03-04T01:52:05.057Z,44.10
2018-03-04T01:53:11.193Z,50.58
2018-03-04T01:54:17.008Z,44.42
2018-03-04T01:55:23.166Z,43.15
2018-03-04T01:56:30.195Z,47.30
2018-03-04T01:57:36.371Z,51.55
2018-03-04T01:58:42.569Z,50.17
2018-03-04T01:59:48.713Z,47.80
2018-03-04T02:00:54.521Z,44.90
2018-03-04T02:02:01.794Z,44.67
2018-03-04T02:03:07.953Z,46.95
2018-03-04T02:04:13.847Z,48.90
2018-03-04T02:05:19.982Z,51.13
2018-03-04T02:06:26.178Z,43.58
2018-03-04T02:07:32.151Z,49.08
2018-03-04T02:08:38.314Z,29.52
2018-03-04T02:09:44.532Z,44.10
2018-03-04T02:10:50.696Z,47.50
2018-03-04T02:11:56.839Z,47.33
2018-03-04T02:13:02.989Z,39.22
2018-03-04T02:14:09.260Z,41.63
2018-03-04T02:15:15.469Z,46.40
2018-03-04T02:16:21.659Z,49.08
2018-03-04T02:17:27.852Z,49.80
2018-03-04T02:18:33.956Z,42.97
2018-03-04T02:19:40.174Z,48.83
2018-03-04T02:20:46.312Z,53.22
2018-03-04T02:21:53.380Z,49.55
2018-03-04T02:22:59.510Z,49.53
2018-03-04T02:24:05.726Z,49.10
2018-03-04T02:25:11.906Z,43.10
2018-03-04T02:26:18.069Z,45.08
2018-03-04T02:27:24.223Z,46.85
2018-03-04T02:28:30.399Z,47.25
2018-03-04T02:29:36.611Z,48.35
2018-03-04T02:30:42.545Z,51.53
2018-03-04T02:31:48.702Z,46.95
2018-03-04T02:32:54.946Z,48.85
2018-03-04T02:34:01.129Z,48.40
2018-03-04T02:35:07.253Z,45.80
2018-03-04T02:36:13.454Z,46.00
2018-03-04T02:37:19.582Z,48.75
2018-03-04T02:38:25.708Z,51.47
2018-03-04T02:39:31.881Z,44.83
2018-03-04T02:40:37.999Z,48.55
2018-03-04T02:41:44.229Z,42.88
2018-03-04T02:42:50.440Z,47.22
2018-03-04T02:43:56.755Z,42.90
2018-03-04T02:45:02.945Z,46.55
2018-03-04T02:46:09.981Z,46.28
2018-03-04T02:47:15.814Z,51.17
2018-03-04T02:48:21.760Z,53.38
2018-03-04T02:49:28.019Z,46.83
2018-03-04T02:50:35.142Z,50.42
2018-03-04T02:51:41.276Z,49.33
2018-03-04T02:52:47.445Z,47.08
2018-03-04T02:53:53.588Z,54.97
2018-03-04T02:54:59.741Z,42.03
2018-03-04T02:56:05.922Z,50.90
2018-03-04T02:57:12.980Z,52.15
2018-03-04T02:58:19.149Z,47.58
2018-03-04T02:59:25.366Z,51.95
2018-03-04T03:00:31.550Z,47.25
2018-03-04T03:01:38.020Z,44.42
2018-03-04T03:02:44.156Z,47.55
2018-03-04T03:03:50.275Z,46.90
2018-03-04T03:05:02.476Z,45.78
2018-03-04T03:06:08.641Z,50.35
2018-03-04T03:07:18.459Z,46.37
2018-03-04T03:08:25.499Z,48.58
2018-03-04T03:09:31.696Z,42.60
2018-03-04T03:10:37.545Z,47.55
2018-03-04T03:11:44.446Z,51.58
2018-03-04T03:12:50.594Z,49.55
2018-03-04T03:13:56.736Z,49.53
2018-03-04T03:15:02.909Z,53.42
2018-03-04T03:16:09.096Z,46.15
2018-03-04T03:17:15.407Z,39.10
2018-03-04T03:18:21.626Z,43.92
2018-03-04T03:19:28.680Z,45.78
2018-03-04T03:20:34.901Z,49.38
2018-03-04T03:21:41.058Z,44.15
2018-03-04T03:22:47.205Z,43.20
2018-03-04T03:23:54.245Z,54.88
2018-03-04T03:25:01.299Z,47.40
2018-03-04T03:26:08.390Z,49.88
2018-03-04T03:27:14.570Z,46.97
2018-03-04T03:28:20.803Z,46.95
2018-03-04T03:29:27.044Z,54.08
2018-03-04T03:30:33.240Z,47.03
2018-03-04T03:31:39.403Z,49.88
2018-03-04T03:32:45.569Z,49.00
2018-03-04T03:33:51.727Z,48.85
2018-03-04T03:34:57.920Z,50.15
2018-03-04T03:36:04.927Z,54.85
2018-03-04T03:37:11.180Z,51.13
2018-03-04T03:38:17.476Z,49.85
2018-03-04T03:39:23.634Z,45.83
2018-03-04T03:40:29.494Z,48.33
2018-03-04T03:41:35.608Z,46.00
2018-03-04T03:42:41.789Z,50.08
2018-03-04T03:43:53.271Z,45.75
2018-03-04T03:44:59.458Z,53.72
2018-03-04T03:46:06.303Z,49.83
2018-03-04T03:47:12.534Z,54.90
2018-03-04T03:48:18.992Z,52.40
2018-03-04T03:49:25.144Z,47.70
2018-03-04T03:50:31.308Z,47.53
2018-03-04T03:51:42.393Z,48.87
2018-03-04T03:52:50.480Z,47.62
2018-03-04T03:54:02.477Z,46.88
2018-03-04T03:55:08.652Z,48.90
2018-03-04T03:56:14.833Z,52.08
2018-03-04T03:57:26.163Z,48.17
2018-03-04T03:58:33.246Z,45.72
2018-03-04T03:59:39.463Z,51.40
2018-03-04T04:00:45.599Z,48.00
2018-03-04T04:01:51.775Z,61.55
2018-03-04T04:02:57.920Z,45.00
2018-03-04T04:04:04.154Z,46.20
2018-03-04T04:05:10.283Z,51.95
2018-03-04T04:06:16.428Z,45.17
2018-03-04T04:07:22.637Z,52.62
2018-03-04T04:08:28.752Z,46.28
2018-03-04T04:09:34.869Z,50.97
2018-03-04T04:10:41.104Z,50.55
2018-03-04T04:11:47.350Z,48.40
2018-03-04T04:12:53.497Z,46.92
2018-03-04T04:13:59.612Z,47.05
2018-03-04T04:15:05.844Z,49.30
2018-03-04T04:16:12.036Z,47.80
2018-03-04T04:17:18.141Z,53.13
2018-03-04T04:18:24.377Z,51.30
2018-03-04T04:19:30.384Z,50.83
2018-03-04T04:20:36.207Z,50.67
2018-03-04T04:21:42.383Z,52.70
2018-03-04T04:22:48.551Z,49.53
2018-03-04T04:23:54.462Z,53.75
2018-03-04T04:25:00.652Z,49.05
2018-03-04T04:26:06.157Z,55.33
2018-03-04T04:27:12.304Z,57.03
2018-03-04T04:28:18.440Z,51.78
2018-03-04T04:29:24.606Z,58.05
2018-03-04T04:30:31.681Z,46.13
2018-03-04T04:31:37.936Z,51.47
2018-03-04T04:32:44.082Z,56.00
2018-03-04T04:33:49.924Z,53.45
2018-03-04T04:34:56.112Z,49.85
2018-03-04T04:36:02.262Z,49.92
2018-03-04T04:37:08.424Z,48.10
2018-03-04T04:38:14.759Z,51.75
2018-03-04T04:39:20.991Z,49.67
2018-03-04T04:40:27.114Z,49.33
2018-03-04T04:41:33.306Z,50.80
2018-03-04T04:42:40.340Z,49.67
2018-03-04T04:43:46.520Z,55.17
2018-03-04T04:44:52.642Z,52.00
2018-03-04T04:45:58.786Z,47.45
2018-03-04T04:47:05.317Z,51.55
2018-03-04T04:48:11.298Z,46.03
2018-03-04T04:49:17.853Z,46.63
2018-03-04T04:50:24.026Z,53.55
2018-03-04T04:51:30.160Z,51.13
2018-03-04T04:52:36.314Z,55.25
2018-03-04T04:53:42.461Z,55.75
2018-03-04T04:54:48.641Z,49.70
2018-03-04T04:55:54.792Z,52.53
2018-03-04T04:57:00.951Z,55.17
2018-03-04T04:58:07.088Z,53.30
2018-03-04T04:59:13.284Z,54.63
2018-03-04T05:00:19.472Z,55.05
2018-03-04T05:01:25.692Z,51.25
2018-03-04T05:02:31.892Z,57.15
2018-03-04T05:03:38.024Z,48.53
2018-03-04T05:04:44.219Z,51.97
2018-03-04T05:05:50.402Z,54.08
2018-03-04T05:06:56.529Z,46.72
2018-03-04T05:08:02.678Z,57.67
2018-03-04T05:09:08.810Z,51.55
2018-03-04T05:10:15.015Z,53.67
2018-03-04T05:11:21.151Z,55.55
2018-03-04T05:12:28.183Z,56.13
2018-03-04T05:13:34.344Z,50.10
2018-03-04T05:14:40.516Z,54.25
2018-03-04T05:15:46.713Z,49.25
2018-03-04T05:16:52.893Z,56.20
2018-03-04T05:17:59.058Z,58.47
2018-03-04T05:19:05.283Z,48.28
2018-03-04T05:20:11.508Z,51.42
2018-03-04T05:21:18.565Z,48.67
2018-03-04T05:22:24.833Z,58.78
2018-03-04T05:23:30.979Z,53.85
2018-03-04T05:24:37.135Z,49.97
2018-03-04T05:25:43.305Z,54.15
2018-03-04T05:26:49.440Z,51.53
2018-03-04T05:27:55.692Z,52.67
2018-03-04T05:29:01.865Z,54.38
2018-03-04T05:30:08.096Z,58.58
2018-03-04T05:31:14.242Z,51.17
2018-03-04T05:32:20.414Z,50.42
2018-03-04T05:33:27.228Z,55.33
2018-03-04T05:34:33.417Z,59.15
2018-03-04T05:35:40.339Z,48.17
2018-03-04T05:36:46.485Z,51.72
2018-03-04T05:37:52.630Z,46.78
2018-03-04T05:38:59.713Z,49.35
2018-03-04T05:40:05.522Z,52.38
2018-03-04T05:41:11.734Z,56.72
2018-03-04T05:42:18.821Z,51.83
2018-03-04T05:43:24.928Z,53.35
2018-03-04T05:44:31.123Z,53.65
2018-03-04T05:45:37.272Z,52.60
2018-03-04T05:46:43.484Z,53.15
2018-03-04T05:47:50.003Z,53.83
2018-03-04T05:48:56.202Z,51.80
2018-03-04T05:50:02.402Z,53.00
2018-03-04T05:51:08.545Z,44.83
2018-03-04T05:52:14.724Z,49.95
2018-03-04T05:53:20.666Z,46.72
2018-03-04T05:54:26.885Z,52.83
2018-03-04T05:55:38.690Z,50.12
2018-03-04T05:56:44.852Z,52.10
2018-03-04T05:57:50.744Z,49.13
2018-03-04T05:58:56.944Z,49.63
2018-03-04T06:00:03.179Z,51.30
2018-03-04T06:01:09.336Z,57.28
2018-03-04T06:02:15.696Z,55.72
2018-03-04T06:03:21.852Z,54.25
2018-03-04T06:04:27.743Z,48.53
2018-03-04T06:05:33.938Z,52.10
2018-03-04T06:06:40.199Z,50.97
2018-03-04T06:07:46.428Z,52.65
2018-03-04T06:08:52.663Z,52.83
2018-03-04T06:09:58.791Z,53.83
2018-03-04T06:11:05.007Z,49.47
2018-03-04T06:12:11.221Z,52.03
2018-03-04T06:13:17.368Z,52.75
2018-03-04T06:14:23.521Z,49.95
2018-03-04T06:15:29.694Z,59.40
2018-03-04T06:16:35.848Z,58.28
2018-03-04T06:17:42.084Z,52.72
2018-03-04T06:18:48.239Z,53.80
2018-03-04T06:19:54.431Z,51.80
2018-03-04T06:21:01.209Z,49.25
2018-03-04T06:22:07.424Z,55.53
2018-03-04T06:23:13.615Z,55.80
2018-03-04T06:24:19.876Z,55.65
2018-03-04T06:25:25.979Z,54.75
2018-03-04T06:26:32.152Z,51.95
2018-03-04T06:27:38.331Z,52.30
2018-03-04T06:28:44.582Z,57.15
2018-03-04T06:29:50.755Z,58.30
2018-03-04T06:30:56.920Z,57.03
2018-03-04T06:32:03.078Z,56.25
2018-03-04T06:33:08.941Z,52.50
2018-03-04T06:34:15.070Z,52.58
2018-03-04T06:35:20.939Z,54.25
2018-03-04T06:36:27.100Z,53.53
2018-03-04T06:37:33.254Z,52.17
2018-03-04T06:38:39.409Z,52.45
2018-03-04T06:39:45.597Z,53.03
2018-03-04T06:40:51.809Z,64.18
2018-03-04T06:41:57.952Z,53.50
2018-03-04T06:43:04.087Z,52.83
2018-03-04T06:44:10.321Z,53.67
2018-03-04T06:45:16.521Z,48.60
2018-03-04T06:46:22.651Z,57.10
2018-03-04T06:47:28.798Z,54.03
2018-03-04T06:48:35.038Z,47.20
2018-03-04T06:49:41.260Z,54.78
2018-03-04T06:50:55.346Z,57.28
2018-03-04T06:52:01.475Z,48.90
2018-03-04T06:53:07.629Z,54.95
2018-03-04T06:54:13.797Z,56.13
2018-03-04T06:55:19.941Z,46.37
2018-03-04T06:56:26.186Z,58.70
2018-03-04T06:57:31.974Z,54.80
2018-03-04T06:58:37.720Z,51.95
2018-03-04T06:59:43.906Z,57.22
2018-03-04T07:00:50.103Z,57.38
2018-03-04T07:01:59.071Z,53.85
2018-03-04T07:03:05.843Z,53.08
2018-03-04T07:04:13.013Z,48.87
2018-03-04T07:05:19.260Z,54.75
2018-03-04T07:06:26.047Z,52.78
2018-03-04T07:07:32.376Z,51.30
2018-03-04T07:08:38.590Z,53.33
2018-03-04T07:09:44.945Z,66.47
2018-03-04T07:10:51.170Z,52.95
2018-03-04T07:11:57.366Z,58.67
2018-03-04T07:13:03.892Z,51.75
2018-03-04T07:14:10.106Z,60.17
2018-03-04T07:15:16.371Z,58.10
2018-03-04T07:16:22.822Z,51.03
2018-03-04T07:17:29.021Z,60.45
2018-03-04T07:18:35.285Z,51.88
2018-03-04T07:19:41.754Z,54.88
2018-03-04T07:20:47.910Z,52.75
2018-03-04T07:21:54.076Z,59.67
2018-03-04T07:23:00.293Z,59.83
2018-03-04T07:24:06.557Z,52.75
2018-03-04T07:25:12.768Z,44.08
2018-03-04T07:26:19.230Z,47.53
2018-03-04T07:27:25.389Z,52.08
2018-03-04T07:28:31.588Z,51.90
2018-03-04T07:29:37.730Z,52.78
2018-03-04T07:30:44.251Z,53.38
2018-03-04T07:31:50.483Z,49.60
2018-03-04T07:32:56.612Z,60.97
2018-03-04T07:34:02.897Z,59.53
2018-03-04T07:35:09.195Z,59.70
2018-03-04T07:36:15.581Z,57.78
2018-03-04T07:37:21.938Z,58.05
2018-03-04T07:38:28.181Z,51.60
2018-03-04T07:39:34.737Z,61.47
2018-03-04T07:40:40.922Z,55.90
2018-03-04T07:41:47.387Z,56.88
2018-03-04T07:42:53.978Z,54.92
2018-03-04T07:44:00.386Z,61.45
2018-03-04T07:45:07.136Z,56.33
2018-03-04T07:46:13.047Z,56.42
2018-03-04T07:47:19.314Z,55.67
2018-03-04T07:48:31.105Z,53.00
2018-03-04T07:49:40.293Z,57.10
2018-03-04T07:50:46.864Z,51.45
2018-03-04T07:51:53.081Z,57.78
2018-03-04T07:52:59.236Z,52.05
2018-03-04T07:54:05.053Z,59.85
2018-03-04T07:55:12.024Z,57.92
2018-03-04T07:56:18.452Z,54.95
2018-03-04T07:57:24.902Z,53.53
2018-03-04T07:58:31.156Z,57.75
2018-03-04T07:59:37.428Z,59.17
2018-03-04T08:00:43.781Z,57.08
2018-03-04T08:01:50.370Z,50.70
2018-03-04T08:02:57.075Z,52.80
2018-03-04T08:04:03.252Z,48.55
2018-03-04T08:05:09.413Z,53.80
2018-03-04T08:06:15.619Z,54.85
2018-03-04T08:07:21.794Z,56.50
2018-03-04T08:08:28.074Z,53.33
2018-03-04T08:09:34.329Z,53.03
2018-03-04T08:10:40.772Z,53.92
2018-03-04T08:11:47.240Z,49.58
2018-03-04T08:12:53.517Z,53.60
2018-03-04T08:13:59.919Z,55.78
2018-03-04T08:15:06.129Z,56.70
2018-03-04T08:16:11.708Z,53.25
2018-03-04T08:17:18.048Z,47.20
2018-03-04T08:18:24.252Z,54.63
2018-03-04T08:19:30.594Z,55.30
2018-03-04T08:20:36.898Z,53.63
2018-03-04T08:21:43.214Z,48.42
2018-03-04T08:22:49.407Z,54.22
2018-03-04T08:23:55.629Z,53.47
2018-03-04T08:25:12.836Z,61.05
2018-03-04T08:26:30.341Z,55.95
2018-03-04T08:29:18.566Z,61.70
2018-03-04T08:30:24.903Z,61.25
2018-03-04T08:31:31.197Z,56.10
2018-03-04T08:32:37.421Z,51.75
2018-03-04T08:33:44.495Z,55.63
2018-03-04T08:34:50.682Z,55.72
2018-03-04T08:35:57.073Z,50.95
2018-03-04T08:37:02.942Z,54.60
2018-03-04T08:38:10.057Z,53.97
2018-03-04T08:39:16.364Z,59.50
2018-03-04T08:40:22.713Z,54.58
2018-03-04T08:41:29.876Z,57.15
2018-03-04T08:42:36.091Z,60.83
2018-03-04T08:43:42.740Z,56.75
2018-03-04T08:44:48.692Z,60.08
2018-03-04T08:45:55.409Z,54.88
2018-03-04T08:47:01.810Z,55.03
2018-03-04T08:48:08.167Z,50.92
2018-03-04T08:49:14.340Z,55.25
2018-03-04T08:50:20.564Z,55.72
2018-03-04T08:51:26.873Z,54.42
2018-03-04T08:52:33.009Z,51.40
2018-03-04T08:53:39.699Z,56.88
2018-03-04T08:54:45.916Z,58.25
2018-03-04T08:55:52.419Z,59.70
2018-03-04T08:56:59.269Z,61.97
2018-03-04T08:58:05.161Z,56.00
2018-03-04T08:59:11.609Z,54.22
2018-03-04T09:00:17.800Z,55.60
2018-03-04T09:01:24.023Z,56.58
2018-03-04T09:02:30.217Z,51.03
2018-03-04T09:03:36.536Z,49.88
2018-03-04T09:04:42.711Z,59.97
2018-03-04T09:05:48.939Z,55.72
2018-03-04T09:06:55.205Z,53.03
2018-03-04T09:08:01.829Z,56.63
2018-03-04T09:09:08.035Z,52.13
2018-03-04T09:10:14.634Z,54.00
2018-03-04T09:11:23.065Z,59.92
2018-03-04T09:12:30.048Z,59.13
2018-03-04T09:13:39.707Z,49.10
2018-03-04T09:14:46.037Z,55.05
2018-03-04T09:15:53.080Z,59.60
2018-03-04T09:16:59.357Z,50.35
2018-03-04T09:18:05.999Z,55.83
2018-03-04T09:19:12.843Z,52.40
2018-03-04T09:20:19.890Z,66.53
2018-03-04T09:21:26.386Z,57.75
2018-03-04T09:22:33.107Z,56.70
2018-03-04T09:23:42.504Z,60.72
2018-03-04T09:24:49.006Z,52.42
2018-03-04T09:25:55.657Z,55.65
2018-03-04T09:27:03.299Z,65.20
2018-03-04T09:28:11.037Z,59.95
2018-03-04T09:29:18.432Z,61.08
2018-03-04T09:30:25.129Z,63.92
2018-03-04T09:31:31.742Z,63.45
2018-03-04T09:32:38.148Z,68.82
2018-03-04T09:33:44.377Z,57.15
2018-03-04T09:34:50.760Z,63.13
2018-03-04T09:35:57.992Z,63.55
2018-03-04T09:37:05.093Z,65.15
2018-03-04T09:38:11.718Z,55.28
2018-03-04T09:39:18.121Z,71.93
2018-03-04T09:40:24.693Z,67.57
2018-03-04T09:41:31.078Z,44.78
2018-03-04T09:42:37.430Z,59.38
2018-03-04T09:43:43.923Z,67.00
2018-03-04T09:44:50.682Z,63.25
2018-03-04T09:45:58.047Z,61.05
2018-03-04T09:47:04.698Z,74.95
2018-03-04T09:48:11.321Z,66.97
2018-03-04T09:49:17.809Z,68.80
2018-03-04T09:50:26.600Z,74.12
2018-03-04T09:51:33.981Z,65.65
2018-03-04T09:52:40.585Z,59.47
2018-03-04T09:53:49.766Z,74.87
2018-03-04T09:54:56.711Z,68.72
2018-03-04T09:56:03.061Z,67.28
2018-03-04T09:57:11.105Z,63.95
2018-03-04T09:58:18.572Z,67.32
2018-03-04T09:59:27.790Z,65.70
2018-03-04T10:00:34.569Z,67.20
2018-03-04T10:01:41.422Z,66.00
2018-03-04T10:02:47.928Z,65.32
2018-03-04T10:03:54.426Z,69.20
2018-03-04T10:05:01.274Z,67.25
2018-03-04T10:06:08.117Z,62.22
2018-03-04T10:07:14.528Z,70.78
2018-03-04T10:08:25.666Z,62.10
2018-03-04T10:09:32.688Z,63.20
2018-03-04T10:10:39.372Z,66.97
2018-03-04T10:11:45.910Z,63.80
2018-03-04T10:12:52.489Z,65.82
2018-03-04T10:13:59.489Z,64.60
2018-03-04T10:15:06.016Z,66.65
2018-03-04T10:16:12.477Z,75.62
2018-03-04T10:17:19.447Z,68.35
2018-03-04T10:18:26.519Z,69.70
2018-03-04T10:19:33.701Z,86.65
2018-03-04T10:20:41.268Z,56.30
2018-03-04T10:21:51.602Z,64.85
2018-03-04T10:22:59.571Z,63.10
2018-03-04T10:24:07.362Z,59.42
2018-03-04T10:25:14.266Z,58.80
2018-03-04T10:26:22.414Z,59.92
2018-03-04T10:27:29.598Z,62.00
2018-03-04T10:28:38.749Z,58.63
2018-03-04T10:29:47.827Z,68.57
2018-03-04T10:30:55.658Z,64.90
2018-03-04T10:32:02.546Z,62.78
2018-03-04T10:33:10.338Z,60.05
2018-03-04T10:34:18.829Z,72.85
2018-03-04T10:35:26.640Z,65.20
2018-03-04T10:36:37.525Z,69.68
2018-03-04T10:37:45.612Z,65.93
2018-03-04T10:38:54.909Z,64.57
2018-03-04T10:40:02.010Z,68.45
2018-03-04T10:41:09.685Z,64.28
2018-03-04T10:42:17.285Z,56.90
2018-03-04T10:43:24.031Z,65.37
2018-03-04T10:44:31.145Z,68.40
2018-03-04T10:45:38.048Z,63.53
2018-03-04T10:46:47.310Z,65.07
2018-03-04T10:47:54.488Z,71.93
2018-03-04T10:49:01.201Z,62.30
2018-03-04T10:50:07.839Z,69.05
2018-03-04T10:51:14.744Z,68.85
2018-03-04T10:52:22.380Z,62.25
2018-03-04T10:53:29.381Z,69.37
2018-03-04T10:54:36.427Z,60.33
2018-03-04T10:55:43.500Z,65.40
2018-03-04T10:56:49.933Z,70.25
2018-03-04T10:57:55.989Z,170.75
2018-03-04T10:59:02.458Z,80.35
2018-03-04T11:00:09.078Z,70.62
2018-03-04T11:01:20.423Z,62.58
2018-03-04T11:02:35.417Z,64.28
2018-03-04T11:03:42.201Z,70.22
2018-03-04T11:04:48.761Z,60.42
2018-03-04T11:05:54.553Z,68.87
2018-03-04T11:07:01.275Z,64.93
2018-03-04T11:08:08.324Z,62.40
2018-03-04T11:09:15.900Z,62.15
2018-03-04T11:10:22.977Z,72.93
2018-03-04T11:11:29.741Z,62.53
2018-03-04T11:12:36.871Z,65.87
2018-03-04T11:13:45.276Z,64.20
2018-03-04T11:14:53.374Z,64.43
2018-03-04T11:16:00.125Z,58.17
2018-03-04T11:17:06.620Z,69.55
2018-03-04T11:18:13.923Z,63.10
2018-03-04T11:19:20.630Z,68.95
2018-03-04T11:20:27.290Z,64.82
2018-03-04T11:21:34.252Z,66.53
2018-03-04T11:22:42.693Z,66.85
2018-03-04T11:23:49.681Z,69.10
2018-03-04T11:24:56.437Z,65.22
2018-03-04T11:26:03.573Z,66.22
2018-03-04T11:27:10.610Z,69.07
2018-03-04T11:28:17.325Z,66.72
2018-03-04T11:29:24.025Z,61.63
2018-03-04T11:30:30.257Z,64.95
2018-03-04T11:31:36.496Z,64.03
2018-03-04T11:32:42.877Z,60.15
2018-03-04T11:33:49.085Z,69.25
2018-03-04T11:34:55.296Z,69.35
2018-03-04T11:36:01.971Z,67.78
2018-03-04T11:37:08.199Z,62.40
2018-03-04T11:38:14.121Z,63.05
2018-03-04T11:39:20.862Z,67.07
2018-03-04T11:40:27.288Z,62.08
2018-03-04T11:41:34.056Z,70.68
2018-03-04T11:42:40.280Z,68.85
2018-03-04T11:43:47.156Z,68.87
2018-03-04T11:44:53.405Z,66.05
2018-03-04T11:45:59.605Z,66.68
2018-03-04T11:47:05.904Z,64.72
2018-03-04T11:48:12.139Z,68.62
2018-03-04T11:49:18.826Z,70.95
2018-03-04T11:50:25.742Z,69.10
2018-03-04T11:51:32.407Z,68.97
2018-03-04T11:52:39.153Z,64.85
2018-03-04T11:53:45.819Z,63.55
2018-03-04T11:54:52.288Z,62.60
2018-03-04T11:55:59.172Z,64.43
2018-03-04T11:57:06.417Z,72.95
2018-03-04T11:58:13.740Z,68.65
2018-03-04T11:59:21.113Z,64.97
2018-03-04T12:00:31.077Z,67.80
2018-03-04T12:01:37.803Z,59.67
2018-03-04T12:02:45.168Z,65.43
2018-03-04T12:03:53.144Z,63.75
2018-03-04T12:04:59.650Z,68.12
2018-03-04T12:06:06.453Z,68.60
2018-03-04T12:07:14.464Z,65.07
2018-03-04T12:08:21.859Z,63.15
2018-03-04T12:09:28.485Z,62.38
2018-03-04T12:10:38.989Z,66.07
2018-03-04T12:11:46.995Z,60.42
2018-03-04T12:12:54.121Z,61.03
2018-03-04T12:14:04.378Z,60.92
2018-03-04T12:15:10.624Z,62.17
2018-03-04T12:16:18.222Z,61.40
2018-03-04T12:17:24.425Z,67.22
2018-03-04T12:18:30.666Z,61.50
2018-03-04T12:19:36.954Z,60.67
2018-03-04T12:20:43.175Z,56.92
2018-03-04T12:21:49.447Z,64.28
2018-03-04T12:23:01.428Z,57.80
2018-03-04T12:24:07.658Z,59.30
2018-03-04T12:25:13.891Z,60.70
2018-03-04T12:26:20.143Z,60.22
2018-03-04T12:27:26.938Z,58.78
2018-03-04T12:28:36.145Z,59.85
2018-03-04T12:29:43.214Z,58.45
2018-03-04T12:30:49.790Z,51.50
2018-03-04T12:31:56.032Z,54.05
2018-03-04T12:33:02.295Z,56.95
2018-03-04T12:34:08.205Z,54.65
2018-03-04T12:35:14.771Z,46.78
2018-03-04T12:36:20.994Z,52.03
2018-03-04T12:37:27.208Z,56.22
2018-03-04T12:38:33.471Z,54.35
2018-03-04T12:39:39.743Z,49.83
2018-03-04T12:40:46.008Z,52.30
2018-03-04T12:41:52.224Z,52.90
2018-03-04T12:42:58.691Z,55.53
2018-03-04T12:44:04.906Z,52.53
2018-03-04T12:45:11.194Z,52.33
2018-03-04T12:46:17.454Z,58.70
2018-03-04T12:47:23.674Z,53.95
2018-03-04T12:48:29.997Z,50.12
2018-03-04T12:49:36.047Z,56.88
2018-03-04T12:50:42.283Z,53.28
2018-03-04T12:51:48.492Z,61.08
2018-03-04T12:52:54.361Z,51.33
2018-03-04T12:54:00.628Z,58.90
2018-03-04T12:55:06.879Z,54.42
2018-03-04T12:56:13.392Z,57.17
2018-03-04T12:57:19.949Z,54.40
2018-03-04T12:58:26.097Z,56.17
2018-03-04T12:59:32.510Z,49.90
2018-03-04T13:00:38.756Z,53.45
2018-03-04T13:01:44.986Z,48.70
2018-03-04T13:02:51.222Z,50.85
2018-03-04T13:03:58.415Z,50.33
2018-03-04T13:05:04.644Z,45.78
2018-03-04T13:06:10.909Z,52.83
2018-03-04T13:07:17.126Z,47.70
2018-03-04T13:08:23.304Z,50.25
2018-03-04T13:09:30.987Z,49.85
2018-03-04T13:10:38.188Z,52.15
2018-03-04T13:11:44.422Z,48.78
2018-03-04T13:12:50.292Z,49.17
2018-03-04T13:13:56.182Z,44.92
2018-03-04T13:15:01.744Z,45.28
2018-03-04T13:16:07.972Z,48.67
2018-03-04T13:17:14.184Z,53.53
2018-03-04T13:18:19.755Z,51.90
2018-03-04T13:19:26.136Z,52.00
2018-03-04T13:20:32.997Z,48.78
2018-03-04T13:21:42.684Z,48.50
2018-03-04T13:22:48.901Z,49.50
2018-03-04T13:23:55.259Z,45.63
2018-03-04T13:25:01.467Z,46.85
2018-03-04T13:26:07.827Z,44.47
2018-03-04T13:27:14.034Z,49.50
2018-03-04T13:28:20.247Z,46.80
2018-03-04T13:29:26.408Z,44.22
2018-03-04T13:30:32.639Z,46.17
2018-03-04T13:31:39.736Z,43.15
2018-03-04T13:32:45.976Z,40.92
2018-03-04T13:33:52.180Z,45.20
2018-03-04T13:34:58.391Z,47.62
2018-03-04T13:36:04.594Z,49.55
2018-03-04T13:37:10.545Z,48.75
2018-03-04T13:38:16.745Z,52.25
2018-03-04T13:39:22.974Z,49.00
2018-03-04T13:40:29.182Z,50.17
2018-03-04T13:41:35.370Z,49.95
2018-03-04T13:42:41.588Z,49.95
2018-03-04T13:43:47.812Z,45.20
2018-03-04T13:44:54.087Z,50.47
2018-03-04T13:46:00.370Z,48.17
2018-03-04T13:47:06.602Z,47.85
2018-03-04T13:48:12.805Z,46.72
2018-03-04T13:49:19.390Z,47.08
2018-03-04T13:50:26.493Z,46.22
2018-03-04T13:51:32.741Z,39.38
2018-03-04T13:52:38.942Z,40.22
2018-03-04T13:53:45.178Z,40.75
2018-03-04T13:54:51.416Z,43.42
2018-03-04T13:55:57.708Z,40.83
2018-03-04T13:57:03.921Z,44.60
2018-03-04T13:58:10.092Z,40.90
2018-03-04T13:59:16.339Z,41.17
2018-03-04T14:00:22.586Z,39.42
2018-03-04T14:01:28.885Z,41.40
2018-03-04T14:02:34.933Z,39.47
2018-03-04T14:03:41.173Z,44.05
2018-03-04T14:04:47.399Z,43.40
2018-03-04T14:06:02.653Z,42.13
2018-03-04T14:07:08.873Z,38.60
2018-03-04T14:08:15.137Z,37.83
2018-03-04T14:09:21.403Z,40.97
2018-03-04T14:10:27.654Z,40.33
2018-03-04T14:11:33.824Z,43.50
2018-03-04T14:12:40.042Z,43.85
2018-03-04T14:13:46.293Z,38.40
2018-03-04T14:14:52.518Z,39.97
2018-03-04T14:15:58.756Z,37.08
2018-03-04T14:17:04.924Z,40.83
2018-03-04T14:18:11.149Z,32.35
2018-03-04T14:19:17.415Z,39.75